createdAt,value
2017-10-15T00:00:44.728Z,22.2
2017-10-15T00:01:53.209Z,22.2
2017-10-15T00:03:00.926Z,22.2
2017-10-15T00:04:09.001Z,22.2
2017-10-15T00:05:17.087Z,22.2
2017-10-15T00:06:25.174Z,22.2
2017-10-15T00:07:33.263Z,22.3
2017-10-15T00:08:41.349Z,22.3
2017-10-15T00:09:49.435Z,22.2
2017-10-15T00:10:57.522Z,22.3
2017-10-15T00:12:05.610Z,22.3
2017-10-15T00:13:13.697Z,22.2
2017-10-15T00:14:21.791Z,22.3
2017-10-15T00:15:29.868Z,22.3
2017-10-15T00:16:37.954Z,22.3
2017-10-15T00:17:46.064Z,22.2
2017-10-15T00:18:54.163Z,22.3
2017-10-15T00:20:02.250Z,22.3
2017-10-15T00:21:10.339Z,22.3
2017-10-15T00:22:18.427Z,22.3
2017-10-15T00:23:26.513Z,22.2
2017-10-15T00:24:34.603Z,22.3
2017-10-15T00:25:42.688Z,22.3
2017-10-15T00:26:50.774Z,22.3
2017-10-15T00:27:58.862Z,22.3
2017-10-15T00:29:06.948Z,22.3
2017-10-15T00:30:15.035Z,22.2
2017-10-15T00:31:23.123Z,22.3
2017-10-15T00:32:31.213Z,22.3
2017-10-15T00:33:39.296Z,22.3
2017-10-15T00:34:47.384Z,22.4
2017-10-15T00:35:55.469Z,22.3
2017-10-15T00:37:03.563Z,22.4
2017-10-15T00:38:11.643Z,22.4
2017-10-15T00:39:19.732Z,22.4
2017-10-15T00:40:27.819Z,22.4
2017-10-15T00:41:35.910Z,22.4
2017-10-15T00:42:44.000Z,22.4
2017-10-15T00:43:52.080Z,22.4
2017-10-15T00:45:00.170Z,22.5
2017-10-15T00:46:08.256Z,22.4
2017-10-15T00:47:16.342Z,22.4
2017-10-15T00:48:24.425Z,22.4
2017-10-15T00:49:32.514Z,22.5
2017-10-15T00:50:40.605Z,22.4
2017-10-15T00:51:48.691Z,22.5
2017-10-15T00:52:56.796Z,22.5
2017-10-15T00:54:04.867Z,22.5
2017-10-15T00:55:12.954Z,22.5
2017-10-15T00:56:21.039Z,22.5
2017-10-15T00:57:29.128Z,22.5
2017-10-15T00:58:37.233Z,22.5
2017-10-15T00:59:45.303Z,22.5
2017-10-15T01:00:53.392Z,22.5
2017-10-15T01:02:01.475Z,22.5
2017-10-15T01:03:09.580Z,22.5
2017-10-15T01:04:17.671Z,22.6
2017-10-15T01:05:25.735Z,22.6
2017-10-15T01:06:33.824Z,22.5
2017-10-15T01:07:41.910Z,22.6
2017-10-15T01:08:49.999Z,22.6
2017-10-15T01:09:58.098Z,22.5
2017-10-15T01:11:06.175Z,22.6
2017-10-15T01:12:14.261Z,22.6
2017-10-15T01:13:22.349Z,22.6
2017-10-15T01:14:30.437Z,22.6
2017-10-15T01:15:38.526Z,22.6
2017-10-15T01:16:46.609Z,22.6
2017-10-15T01:17:54.693Z,22.6
2017-10-15T01:19:02.788Z,22.6
2017-10-15T01:20:10.871Z,22.6
2017-10-15T01:21:18.958Z,22.6
2017-10-15T01:22:27.046Z,22.6
2017-10-15T01:23:35.161Z,22.6
2017-10-15T01:24:43.246Z,22.6
2017-10-15T01:25:51.335Z,22.7
2017-10-15T01:26:59.430Z,22.7
2017-10-15T01:28:07.520Z,22.7
2017-10-15T01:29:15.664Z,22.7
2017-10-15T01:30:23.751Z,22.8
2017-10-15T01:31:31.840Z,22.8
2017-10-15T01:32:39.924Z,22.9
2017-10-15T01:33:48.012Z,22.8
2017-10-15T01:34:56.098Z,22.7
2017-10-15T01:36:04.187Z,22.8
2017-10-15T01:37:12.275Z,22.8
2017-10-15T01:38:20.361Z,22.7
2017-10-15T01:39:28.644Z,22.8
2017-10-15T01:40:36.539Z,22.8
2017-10-15T01:41:44.626Z,22.8
2017-10-15T01:42:52.731Z,22.9
2017-10-15T01:44:00.824Z,22.9
2017-10-15T01:45:08.908Z,22.9
2017-10-15T01:46:16.994Z,22.9
2017-10-15T01:47:25.081Z,22.9
2017-10-15T01:48:33.169Z,22.9
2017-10-15T01:49:41.254Z,22.9
2017-10-15T01:50:49.363Z,22.9
2017-10-15T01:51:57.429Z,22.9
2017-10-15T01:53:05.893Z,22.9
2017-10-15T01:54:13.670Z,22.9
2017-10-15T01:55:21.692Z,22.9
2017-10-15T01:56:29.781Z,22.9
2017-10-15T01:57:37.868Z,22.9
2017-10-15T01:58:45.955Z,23.0
2017-10-15T01:59:54.043Z,22.9
2017-10-15T02:01:02.131Z,23.0
2017-10-15T02:02:10.435Z,23.0
2017-10-15T02:03:18.519Z,23.0
2017-10-15T02:04:26.610Z,23.0
2017-10-15T02:05:34.698Z,22.9
2017-10-15T02:06:42.788Z,23.0
2017-10-15T02:07:50.872Z,23.0
2017-10-15T02:08:58.956Z,22.9
2017-10-15T02:10:07.047Z,23.0
2017-10-15T02:11:15.139Z,22.9
2017-10-15T02:12:23.222Z,23.0
2017-10-15T02:13:31.310Z,23.1
2017-10-15T02:14:39.398Z,23.0
2017-10-15T02:15:47.492Z,23.1
2017-10-15T02:16:55.589Z,23.1
2017-10-15T02:18:03.659Z,23.1
2017-10-15T02:19:11.747Z,23.1
2017-10-15T02:20:19.834Z,23.1
2017-10-15T02:21:27.930Z,23.0
2017-10-15T02:22:36.021Z,23.1
2017-10-15T02:23:44.190Z,23.1
2017-10-15T02:24:52.274Z,23.1
2017-10-15T02:26:00.363Z,23.1
2017-10-15T02:27:08.447Z,23.1
2017-10-15T02:28:16.533Z,23.1
2017-10-15T02:29:24.620Z,23.1
2017-10-15T02:30:32.708Z,23.1
2017-10-15T02:31:40.800Z,23.1
2017-10-15T02:32:48.894Z,23.1
2017-10-15T02:33:56.974Z,23.1
2017-10-15T02:35:05.121Z,23.2
2017-10-15T02:36:13.202Z,23.1
2017-10-15T02:37:21.290Z,23.2
2017-10-15T02:38:29.378Z,23.1
2017-10-15T02:39:37.466Z,23.1
2017-10-15T02:40:45.555Z,23.1
2017-10-15T02:41:53.645Z,23.1
2017-10-15T02:43:01.729Z,23.2
2017-10-15T02:44:09.817Z,23.2
2017-10-15T02:45:17.913Z,23.1
2017-10-15T02:46:26.004Z,23.2
2017-10-15T02:47:34.082Z,23.2
2017-10-15T02:48:42.170Z,23.1
2017-10-15T02:49:50.262Z,23.2
2017-10-15T02:50:58.352Z,23.1
2017-10-15T02:52:06.432Z,23.1
2017-10-15T02:53:14.743Z,23.2
2017-10-15T02:54:22.830Z,23.2
2017-10-15T02:55:30.917Z,23.3
2017-10-15T02:56:39.004Z,23.2
2017-10-15T02:57:47.091Z,23.2
2017-10-15T02:58:55.179Z,23.2
2017-10-15T03:00:03.280Z,23.3
2017-10-15T03:01:11.362Z,23.2
2017-10-15T03:02:19.445Z,23.2
2017-10-15T03:03:28.255Z,23.3
2017-10-15T03:04:36.344Z,23.2
2017-10-15T03:05:44.431Z,23.3
2017-10-15T03:06:52.531Z,23.3
2017-10-15T03:08:00.606Z,23.3
2017-10-15T03:09:08.695Z,23.2
2017-10-15T03:10:16.790Z,23.2
2017-10-15T03:11:24.877Z,23.3
2017-10-15T03:12:32.966Z,23.3
2017-10-15T03:13:41.054Z,23.3
2017-10-15T03:14:49.159Z,23.3
2017-10-15T03:15:57.238Z,23.3
2017-10-15T03:17:05.330Z,23.2
2017-10-15T03:18:13.415Z,23.3
2017-10-15T03:19:21.510Z,23.2
2017-10-15T03:20:29.592Z,23.3
2017-10-15T03:21:37.759Z,23.3
2017-10-15T03:22:45.766Z,23.3
2017-10-15T03:23:53.855Z,23.3
2017-10-15T03:25:01.944Z,23.3
2017-10-15T03:26:10.032Z,23.2
2017-10-15T03:27:18.120Z,23.3
2017-10-15T03:28:26.208Z,23.3
2017-10-15T03:29:34.296Z,23.4
2017-10-15T03:30:42.394Z,23.3
2017-10-15T03:31:50.485Z,23.3
2017-10-15T03:32:58.569Z,23.3
2017-10-15T03:34:06.657Z,23.4
2017-10-15T03:35:14.746Z,23.3
2017-10-15T03:36:22.834Z,23.4
2017-10-15T03:37:30.922Z,23.3
2017-10-15T03:38:39.009Z,23.3
2017-10-15T03:39:47.098Z,23.3
2017-10-15T03:40:55.187Z,23.3
2017-10-15T03:42:03.291Z,23.4
2017-10-15T03:43:11.364Z,23.3
2017-10-15T03:44:19.460Z,23.3
2017-10-15T03:45:27.554Z,23.3
2017-10-15T03:46:35.625Z,23.3
2017-10-15T03:47:43.717Z,23.3
2017-10-15T03:48:51.803Z,23.3
2017-10-15T03:49:59.889Z,23.3
2017-10-15T03:51:07.977Z,23.3
2017-10-15T03:52:16.064Z,23.4
2017-10-15T03:53:24.160Z,23.3
2017-10-15T03:54:32.248Z,23.2
2017-10-15T03:55:40.336Z,23.3
2017-10-15T03:56:48.424Z,23.3
2017-10-15T03:57:56.516Z,23.3
2017-10-15T03:59:04.602Z,23.3
2017-10-15T04:00:12.689Z,23.4
2017-10-15T04:01:20.777Z,23.3
2017-10-15T04:02:28.863Z,23.3
2017-10-15T04:03:36.963Z,23.3
2017-10-15T04:04:45.047Z,23.3
2017-10-15T04:05:53.150Z,23.3
2017-10-15T04:07:01.234Z,23.3
2017-10-15T04:08:09.312Z,23.3
2017-10-15T04:09:17.399Z,23.3
2017-10-15T04:10:25.489Z,23.3
2017-10-15T04:11:33.574Z,23.3
2017-10-15T04:12:41.663Z,23.3
2017-10-15T04:13:49.750Z,23.3
2017-10-15T04:14:57.837Z,23.2
2017-10-15T04:16:06.829Z,23.2
2017-10-15T04:17:14.915Z,23.3
2017-10-15T04:18:23.002Z,23.2
2017-10-15T04:19:31.089Z,23.3
2017-10-15T04:20:39.177Z,23.2
2017-10-15T04:21:47.266Z,23.3
2017-10-15T04:22:55.353Z,23.3
2017-10-15T04:24:03.449Z,23.2
2017-10-15T04:25:11.530Z,23.3
2017-10-15T04:26:19.619Z,23.3
2017-10-15T04:27:27.725Z,23.2
2017-10-15T04:28:35.792Z,23.2
2017-10-15T04:29:43.879Z,23.2
2017-10-15T04:30:51.969Z,23.3
2017-10-15T04:32:00.058Z,23.2
2017-10-15T04:33:08.144Z,23.2
2017-10-15T04:34:16.251Z,23.3
2017-10-15T04:35:24.336Z,23.2
2017-10-15T04:36:32.425Z,23.3
2017-10-15T04:37:40.513Z,23.2
2017-10-15T04:38:48.600Z,23.2
2017-10-15T04:39:56.687Z,23.1
2017-10-15T04:41:04.777Z,23.2
2017-10-15T04:42:12.871Z,23.2
2017-10-15T04:43:20.953Z,23.2
2017-10-15T04:44:29.038Z,23.1
2017-10-15T04:45:37.125Z,23.2
2017-10-15T04:46:45.216Z,23.2
2017-10-15T04:47:53.304Z,23.2
2017-10-15T04:49:01.393Z,23.2
2017-10-15T04:50:09.479Z,23.1
2017-10-15T04:51:17.567Z,23.1
2017-10-15T04:52:25.660Z,23.1
2017-10-15T04:53:33.741Z,23.1
2017-10-15T04:54:41.829Z,23.2
2017-10-15T04:55:49.919Z,23.2
2017-10-15T04:56:58.007Z,23.1
2017-10-15T04:58:06.095Z,23.1
2017-10-15T04:59:14.181Z,23.2
2017-10-15T05:00:22.270Z,23.1
2017-10-15T05:01:30.357Z,23.1
2017-10-15T05:02:38.448Z,23.1
2017-10-15T05:03:46.534Z,23.1
2017-10-15T05:04:54.641Z,23.1
2017-10-15T05:06:02.715Z,23.2
2017-10-15T05:07:10.892Z,23.1
2017-10-15T05:08:18.907Z,23.1
2017-10-15T05:09:26.994Z,23.1
2017-10-15T05:10:35.099Z,23.1
2017-10-15T05:11:43.185Z,23.0
2017-10-15T05:12:51.273Z,23.1
2017-10-15T05:13:59.359Z,23.1
2017-10-15T05:15:07.448Z,23.1
2017-10-15T05:16:15.534Z,23.1
2017-10-15T05:17:23.623Z,23.1
2017-10-15T05:18:31.711Z,23.0
2017-10-15T05:19:39.802Z,23.0
2017-10-15T05:20:47.890Z,23.0
2017-10-15T05:21:56.015Z,22.9
2017-10-15T05:23:04.099Z,23.0
2017-10-15T05:24:12.198Z,23.0
2017-10-15T05:25:20.428Z,23.0
2017-10-15T05:26:28.517Z,23.0
2017-10-15T05:27:36.607Z,22.9
2017-10-15T05:28:44.694Z,23.0
2017-10-15T05:29:52.778Z,23.0
2017-10-15T05:31:00.868Z,23.0
2017-10-15T05:32:08.955Z,22.9
2017-10-15T05:33:17.042Z,23.0
2017-10-15T05:34:25.131Z,23.0
2017-10-15T05:35:33.217Z,22.9
2017-10-15T05:36:41.305Z,23.0
2017-10-15T05:37:49.395Z,22.9
2017-10-15T05:38:57.481Z,22.9
2017-10-15T05:40:05.573Z,23.0
2017-10-15T05:41:13.656Z,22.9
2017-10-15T05:42:21.748Z,22.9
2017-10-15T05:43:29.832Z,22.9
2017-10-15T05:44:37.926Z,22.9
2017-10-15T05:45:46.012Z,22.9
2017-10-15T05:46:54.112Z,22.8
2017-10-15T05:48:02.185Z,22.9
2017-10-15T05:49:10.269Z,22.8
2017-10-15T05:50:18.372Z,22.9
2017-10-15T05:51:26.727Z,22.9
2017-10-15T05:52:34.558Z,22.8
2017-10-15T05:53:42.623Z,22.9
2017-10-15T05:54:50.713Z,22.9
2017-10-15T05:55:58.800Z,22.8
2017-10-15T05:57:07.063Z,22.8
2017-10-15T05:58:14.988Z,22.9
2017-10-15T05:59:23.064Z,22.8
2017-10-15T06:00:31.154Z,22.9
2017-10-15T06:01:39.245Z,22.8
2017-10-15T06:02:47.337Z,22.8
2017-10-15T06:03:55.432Z,22.8
2017-10-15T06:05:03.520Z,22.8
2017-10-15T06:06:11.610Z,22.8
2017-10-15T06:07:19.707Z,22.8
2017-10-15T06:08:27.798Z,22.8
2017-10-15T06:09:35.905Z,22.8
2017-10-15T06:10:43.994Z,22.8
2017-10-15T06:11:52.080Z,22.8
2017-10-15T06:13:00.262Z,22.8
2017-10-15T06:14:08.484Z,22.8
2017-10-15T06:15:16.603Z,22.8
2017-10-15T06:16:24.429Z,22.7
2017-10-15T06:17:32.517Z,22.7
2017-10-15T06:18:40.604Z,22.7
2017-10-15T06:19:48.838Z,22.8
2017-10-15T06:20:56.782Z,22.8
2017-10-15T06:22:05.027Z,22.8
2017-10-15T06:23:12.953Z,22.8
2017-10-15T06:24:21.043Z,22.7
2017-10-15T06:25:29.132Z,22.7
2017-10-15T06:26:37.217Z,22.8
2017-10-15T06:27:45.305Z,22.8
2017-10-15T06:28:53.651Z,22.7
2017-10-15T06:30:01.729Z,22.7
2017-10-15T06:31:09.824Z,22.6
2017-10-15T06:32:17.910Z,22.6
2017-10-15T06:33:26.005Z,22.6
2017-10-15T06:34:34.085Z,22.6
2017-10-15T06:35:42.181Z,22.7
2017-10-15T06:36:50.271Z,22.7
2017-10-15T06:37:58.357Z,22.6
2017-10-15T06:39:06.454Z,22.6
2017-10-15T06:40:14.532Z,22.6
2017-10-15T06:41:22.620Z,22.7
2017-10-15T06:42:30.717Z,22.6
2017-10-15T06:43:38.794Z,22.6
2017-10-15T06:44:46.883Z,22.6
2017-10-15T06:45:54.976Z,22.6
2017-10-15T06:47:03.058Z,22.7
2017-10-15T06:48:11.142Z,22.6
2017-10-15T06:49:19.230Z,22.6
2017-10-15T06:50:27.318Z,22.6
2017-10-15T06:51:35.407Z,22.6
2017-10-15T06:52:43.492Z,22.6
2017-10-15T06:53:51.579Z,22.6
2017-10-15T06:54:59.665Z,22.6
2017-10-15T06:56:07.754Z,22.5
2017-10-15T06:57:15.913Z,22.6
2017-10-15T06:58:24.000Z,22.6
2017-10-15T06:59:32.349Z,22.6
2017-10-15T07:00:40.220Z,22.6
2017-10-15T07:01:48.270Z,22.6
2017-10-15T07:02:56.356Z,22.6
2017-10-15T07:04:04.532Z,22.5
2017-10-15T07:05:12.531Z,22.5
2017-10-15T07:06:20.625Z,22.5
2017-10-15T07:07:28.828Z,22.5
2017-10-15T07:08:36.801Z,22.5
2017-10-15T07:09:44.886Z,22.5
2017-10-15T07:10:52.978Z,22.5
2017-10-15T07:12:01.063Z,22.5
2017-10-15T07:13:09.304Z,22.6
2017-10-15T07:14:17.237Z,22.5
2017-10-15T07:15:25.325Z,22.5
2017-10-15T07:16:33.627Z,22.5
2017-10-15T07:17:41.883Z,22.5
2017-10-15T07:18:49.807Z,22.5
2017-10-15T07:19:57.898Z,22.4
2017-10-15T07:21:05.985Z,22.5
2017-10-15T07:22:14.073Z,22.4
2017-10-15T07:23:22.160Z,22.4
2017-10-15T07:24:30.262Z,22.4
2017-10-15T07:25:38.359Z,22.4
2017-10-15T07:26:46.429Z,22.4
2017-10-15T07:27:54.529Z,22.4
2017-10-15T07:29:02.600Z,22.4
2017-10-15T07:30:10.689Z,22.4
2017-10-15T07:31:18.776Z,22.4
2017-10-15T07:32:27.223Z,22.4
2017-10-15T07:33:34.952Z,22.3
2017-10-15T07:34:43.038Z,22.3
2017-10-15T07:35:51.128Z,22.3
2017-10-15T07:36:59.211Z,22.3
2017-10-15T07:38:07.298Z,22.3
2017-10-15T07:39:15.392Z,22.3
2017-10-15T07:40:23.473Z,22.3
2017-10-15T07:41:31.557Z,22.3
2017-10-15T07:42:39.650Z,22.2
2017-10-15T07:43:47.732Z,22.3
2017-10-15T07:44:55.821Z,22.3
2017-10-15T07:46:03.910Z,22.3
2017-10-15T07:47:11.994Z,22.2
2017-10-15T07:48:20.086Z,22.2
2017-10-15T07:49:28.167Z,22.3
2017-10-15T07:50:36.254Z,22.3
2017-10-15T07:51:44.342Z,22.3
2017-10-15T07:52:52.427Z,22.3
2017-10-15T07:54:00.517Z,22.2
2017-10-15T07:55:08.602Z,22.3
2017-10-15T07:56:17.146Z,22.3
2017-10-15T07:57:24.777Z,22.2
2017-10-15T07:58:32.863Z,22.2
2017-10-15T07:59:40.952Z,22.2
2017-10-15T08:00:49.036Z,22.3
2017-10-15T08:01:57.125Z,22.3
2017-10-15T08:03:05.214Z,22.2
2017-10-15T08:04:13.298Z,22.2
2017-10-15T08:05:21.387Z,22.2
2017-10-15T08:06:29.475Z,22.2
2017-10-15T08:07:37.559Z,22.2
2017-10-15T08:08:45.644Z,22.2
2017-10-15T08:09:53.733Z,22.2
2017-10-15T08:11:01.819Z,22.2
2017-10-15T08:12:09.907Z,22.2
2017-10-15T08:13:17.994Z,22.2
2017-10-15T08:14:26.086Z,22.2
2017-10-15T08:15:34.175Z,22.2
2017-10-15T08:16:42.264Z,22.2
2017-10-15T08:17:50.349Z,22.2
2017-10-15T08:18:58.459Z,22.1
2017-10-15T08:20:06.528Z,22.2
2017-10-15T08:21:14.610Z,22.1
2017-10-15T08:22:22.698Z,22.1
2017-10-15T08:23:30.787Z,22.1
2017-10-15T08:24:38.874Z,22.1
2017-10-15T08:25:46.958Z,22.1
2017-10-15T08:26:55.047Z,22.1
2017-10-15T08:28:03.132Z,22.1
2017-10-15T08:29:11.223Z,22.1
2017-10-15T08:30:19.306Z,22.1
2017-10-15T08:31:27.398Z,22.0
2017-10-15T08:32:35.480Z,22.1
2017-10-15T08:33:43.574Z,22.1
2017-10-15T08:34:51.651Z,22.1
2017-10-15T08:35:59.737Z,22.1
2017-10-15T08:37:07.825Z,22.1
2017-10-15T08:38:15.912Z,22.1
2017-10-15T08:39:23.999Z,22.1
2017-10-15T08:40:32.089Z,22.1
2017-10-15T08:41:40.173Z,22.1
2017-10-15T08:42:48.261Z,22.1
2017-10-15T08:43:56.345Z,22.1
2017-10-15T08:45:04.433Z,22.1
2017-10-15T08:46:12.530Z,22.1
2017-10-15T08:47:20.620Z,22.1
2017-10-15T08:48:28.703Z,22.1
2017-10-15T08:49:36.796Z,22.1
2017-10-15T08:50:44.882Z,22.1
2017-10-15T08:51:52.970Z,22.1
2017-10-15T08:53:01.058Z,22.1
2017-10-15T08:54:09.144Z,22.0
2017-10-15T08:55:17.229Z,22.1
2017-10-15T08:56:25.315Z,22.0
2017-10-15T08:57:33.416Z,22.0
2017-10-15T08:58:41.492Z,22.0
2017-10-15T08:59:49.579Z,22.0
2017-10-15T09:00:57.665Z,21.9
2017-10-15T09:02:05.751Z,21.9
2017-10-15T09:03:13.836Z,22.0
2017-10-15T09:04:21.924Z,21.9
2017-10-15T09:05:30.021Z,21.9
2017-10-15T09:06:38.116Z,22.0
2017-10-15T09:07:46.203Z,22.0
2017-10-15T09:08:54.291Z,22.0
2017-10-15T09:10:02.377Z,21.9
2017-10-15T09:11:10.464Z,21.9
2017-10-15T09:12:18.558Z,21.9
2017-10-15T09:13:26.636Z,22.0
2017-10-15T09:14:34.725Z,22.0
2017-10-15T09:15:42.816Z,21.9
2017-10-15T09:16:50.895Z,22.0
2017-10-15T09:17:58.992Z,21.9
2017-10-15T09:19:07.072Z,21.9
2017-10-15T09:20:15.158Z,21.9
2017-10-15T09:21:23.249Z,21.9
2017-10-15T09:22:31.338Z,22.0
2017-10-15T09:23:39.424Z,21.9
2017-10-15T09:24:47.513Z,21.9
2017-10-15T09:25:55.597Z,21.9
2017-10-15T09:27:03.690Z,22.0
2017-10-15T09:28:11.770Z,22.0
2017-10-15T09:29:19.857Z,21.9
2017-10-15T09:30:27.953Z,21.9
2017-10-15T09:31:36.068Z,21.8
2017-10-15T09:32:44.182Z,21.9
2017-10-15T09:33:52.252Z,21.9
2017-10-15T09:35:00.341Z,21.9
2017-10-15T09:36:08.449Z,21.9
2017-10-15T09:37:16.515Z,21.9
2017-10-15T09:38:24.602Z,21.9
2017-10-15T09:39:32.700Z,21.8
2017-10-15T09:40:40.790Z,21.8
2017-10-15T09:41:48.886Z,21.9
2017-10-15T09:42:56.968Z,21.8
2017-10-15T09:44:05.054Z,21.9
2017-10-15T09:45:13.144Z,21.8
2017-10-15T09:46:21.229Z,21.8
2017-10-15T09:47:29.333Z,21.9
2017-10-15T09:48:37.419Z,21.8
2017-10-15T09:49:45.507Z,21.9
2017-10-15T09:50:53.595Z,21.8
2017-10-15T09:52:01.681Z,21.8
2017-10-15T09:53:09.781Z,21.8
2017-10-15T09:54:17.874Z,21.8
2017-10-15T09:55:25.941Z,21.8
2017-10-15T09:56:34.064Z,21.8
2017-10-15T09:57:42.115Z,21.8
2017-10-15T09:58:50.203Z,21.9
2017-10-15T09:59:58.304Z,21.8
2017-10-15T10:01:06.391Z,21.8
2017-10-15T10:02:14.487Z,21.8
2017-10-15T10:03:22.580Z,21.8
2017-10-15T10:04:30.677Z,21.8
2017-10-15T10:05:38.765Z,21.8
2017-10-15T10:06:46.862Z,21.9
2017-10-15T10:07:54.949Z,21.8
2017-10-15T10:09:03.222Z,21.8
2017-10-15T10:10:11.119Z,21.8
2017-10-15T10:11:19.210Z,21.8
2017-10-15T10:12:27.294Z,21.8
2017-10-15T10:13:35.380Z,21.8
2017-10-15T10:14:43.468Z,21.8
2017-10-15T10:15:51.555Z,21.8
2017-10-15T10:16:59.642Z,21.8
2017-10-15T10:18:07.736Z,21.8
2017-10-15T10:19:15.929Z,21.8
2017-10-15T10:20:23.903Z,21.8
2017-10-15T10:21:31.987Z,21.8
2017-10-15T10:22:40.078Z,21.8
2017-10-15T10:23:48.161Z,21.8
2017-10-15T10:24:56.250Z,21.8
2017-10-15T10:26:04.337Z,21.8
2017-10-15T10:27:12.425Z,21.8
2017-10-15T10:28:20.512Z,21.8
2017-10-15T10:29:28.606Z,21.8
2017-10-15T10:30:36.686Z,21.9
2017-10-15T10:31:44.772Z,21.8
2017-10-15T10:32:52.860Z,21.8
2017-10-15T10:34:00.948Z,21.9
2017-10-15T10:35:09.034Z,21.8
2017-10-15T10:36:17.154Z,21.8
2017-10-15T10:37:25.363Z,21.9
2017-10-15T10:38:33.443Z,21.9
2017-10-15T10:39:41.638Z,21.9
2017-10-15T10:40:49.731Z,21.8
2017-10-15T10:41:57.813Z,21.8
2017-10-15T10:43:05.920Z,21.9
2017-10-15T10:44:13.986Z,21.9
2017-10-15T10:45:22.075Z,21.9
2017-10-15T10:46:30.165Z,21.8
2017-10-15T10:47:38.396Z,21.9
2017-10-15T10:48:46.485Z,21.9
2017-10-15T10:49:54.572Z,21.9
2017-10-15T10:51:02.662Z,21.8
2017-10-15T10:52:10.753Z,21.9
2017-10-15T10:53:18.841Z,21.9
2017-10-15T10:54:26.941Z,21.9
2017-10-15T10:55:35.020Z,21.9
2017-10-15T10:56:43.092Z,21.9
2017-10-15T10:57:51.181Z,21.9
2017-10-15T10:58:59.268Z,21.9
2017-10-15T11:00:07.354Z,21.9
2017-10-15T11:01:15.451Z,21.9
2017-10-15T11:02:23.529Z,21.9
2017-10-15T11:03:31.617Z,21.9
2017-10-15T11:04:39.716Z,21.9
2017-10-15T11:05:47.812Z,21.9
2017-10-15T11:06:55.898Z,21.9
2017-10-15T11:08:03.985Z,21.9
2017-10-15T11:09:12.072Z,21.9
2017-10-15T11:10:20.157Z,21.9
2017-10-15T11:11:28.244Z,21.9
2017-10-15T11:12:36.334Z,21.9
2017-10-15T11:13:44.424Z,21.9
2017-10-15T11:14:52.563Z,21.9
2017-10-15T11:16:00.590Z,21.9
2017-10-15T11:17:08.680Z,21.9
2017-10-15T11:18:16.767Z,21.8
2017-10-15T11:19:24.853Z,21.9
2017-10-15T11:20:32.942Z,21.9
2017-10-15T11:21:41.134Z,21.9
2017-10-15T11:22:49.222Z,21.9
2017-10-15T11:23:57.313Z,21.9
2017-10-15T11:25:05.394Z,21.8
2017-10-15T11:26:13.480Z,21.9
2017-10-15T11:27:21.570Z,21.9
2017-10-15T11:28:29.654Z,21.9
2017-10-15T11:29:37.762Z,21.9
2017-10-15T11:30:45.830Z,21.9
2017-10-15T11:31:53.915Z,21.8
2017-10-15T11:33:02.004Z,21.9
2017-10-15T11:34:10.089Z,21.8
2017-10-15T11:35:18.175Z,21.8
2017-10-15T11:36:26.274Z,21.9
2017-10-15T11:37:34.372Z,21.8
2017-10-15T11:38:42.460Z,21.9
2017-10-15T11:39:50.543Z,21.8
2017-10-15T11:40:58.629Z,21.8
2017-10-15T11:42:06.822Z,21.9
2017-10-15T11:43:14.803Z,21.9
2017-10-15T11:44:22.891Z,21.9
2017-10-15T11:45:30.979Z,21.9
2017-10-15T11:46:39.067Z,21.8
2017-10-15T11:47:47.156Z,21.8
2017-10-15T11:48:55.240Z,21.9
2017-10-15T11:50:03.330Z,21.8
2017-10-15T11:51:11.414Z,21.9
2017-10-15T11:52:19.513Z,21.8
2017-10-15T11:53:27.592Z,21.8
2017-10-15T11:54:35.677Z,21.9
2017-10-15T11:55:43.835Z,21.8
2017-10-15T11:56:51.849Z,21.8
2017-10-15T11:57:59.940Z,21.8
2017-10-15T11:59:08.024Z,21.8
2017-10-15T12:00:16.117Z,21.8
2017-10-15T12:01:24.208Z,21.8
2017-10-15T12:02:32.338Z,21.8
2017-10-15T12:03:40.433Z,21.8
2017-10-15T12:04:48.524Z,21.8
2017-10-15T12:05:56.609Z,21.8
2017-10-15T12:07:04.691Z,21.8
2017-10-15T12:08:12.784Z,21.8
2017-10-15T12:09:20.869Z,21.8
2017-10-15T12:10:28.955Z,21.8
2017-10-15T12:11:37.041Z,21.8
2017-10-15T12:12:45.129Z,21.8
2017-10-15T12:13:53.217Z,21.8
2017-10-15T12:15:01.307Z,21.8
2017-10-15T12:16:09.391Z,21.8
2017-10-15T12:17:17.494Z,21.8
2017-10-15T12:18:25.592Z,21.8
2017-10-15T12:19:33.685Z,21.8
2017-10-15T12:20:41.762Z,21.8
2017-10-15T12:21:49.850Z,21.8
2017-10-15T12:22:57.937Z,21.8
2017-10-15T12:24:06.029Z,21.8
2017-10-15T12:25:14.113Z,21.8
2017-10-15T12:26:22.199Z,21.8
2017-10-15T12:27:30.285Z,21.8
2017-10-15T12:28:38.373Z,21.8
2017-10-15T12:29:46.460Z,21.8
2017-10-15T12:30:54.544Z,21.8
2017-10-15T12:32:02.633Z,21.8
2017-10-15T12:33:10.722Z,21.8
2017-10-15T12:34:18.806Z,21.8
2017-10-15T12:35:26.894Z,21.8
2017-10-15T12:36:34.989Z,21.8
2017-10-15T12:37:43.075Z,21.8
2017-10-15T12:38:51.162Z,21.8
2017-10-15T12:39:59.253Z,21.8
2017-10-15T12:41:07.346Z,21.8
2017-10-15T12:42:15.440Z,21.8
2017-10-15T12:43:23.528Z,21.8
2017-10-15T12:44:31.613Z,21.8
2017-10-15T12:45:39.703Z,21.8
2017-10-15T12:46:47.787Z,21.8
2017-10-15T12:47:55.875Z,21.8
2017-10-15T12:49:03.962Z,21.8
2017-10-15T12:50:12.049Z,21.8
2017-10-15T12:51:20.157Z,21.8
2017-10-15T12:52:28.224Z,21.9
2017-10-15T12:53:36.307Z,21.8
2017-10-15T12:54:44.396Z,21.8
2017-10-15T12:55:52.484Z,21.8
2017-10-15T12:57:00.570Z,21.8
2017-10-15T12:58:08.656Z,21.8
2017-10-15T12:59:16.742Z,21.8
2017-10-15T13:00:24.831Z,21.8
2017-10-15T13:01:32.920Z,21.9
2017-10-15T13:02:41.016Z,21.8
2017-10-15T13:03:49.109Z,21.8
2017-10-15T13:04:57.196Z,21.8
2017-10-15T13:06:05.281Z,21.8
2017-10-15T13:07:13.368Z,21.8
2017-10-15T13:08:21.457Z,21.8
2017-10-15T13:09:29.544Z,21.8
2017-10-15T13:10:37.631Z,21.8
2017-10-15T13:11:45.717Z,21.9
2017-10-15T13:12:53.803Z,21.8
2017-10-15T13:14:01.893Z,21.8
2017-10-15T13:15:09.980Z,21.8
2017-10-15T13:16:18.067Z,21.8
2017-10-15T13:17:26.159Z,21.9
2017-10-15T13:18:34.238Z,21.8
2017-10-15T13:19:42.326Z,21.8
2017-10-15T13:20:50.415Z,21.8
2017-10-15T13:21:58.500Z,21.9
2017-10-15T13:23:06.593Z,21.8
2017-10-15T13:24:14.685Z,21.8
2017-10-15T13:25:22.769Z,21.9
2017-10-15T13:26:30.857Z,21.8
2017-10-15T13:27:38.949Z,21.9
2017-10-15T13:28:47.038Z,21.8
2017-10-15T13:29:55.127Z,21.8
2017-10-15T13:31:03.215Z,21.9
2017-10-15T13:32:11.302Z,21.9
2017-10-15T13:33:19.396Z,21.9
2017-10-15T13:34:27.478Z,21.8
2017-10-15T13:35:35.562Z,21.9
2017-10-15T13:36:43.653Z,21.9
2017-10-15T13:37:51.736Z,21.8
2017-10-15T13:38:59.822Z,21.9
2017-10-15T13:40:07.921Z,21.9
2017-10-15T13:41:16.059Z,21.9
2017-10-15T13:42:24.087Z,21.9
2017-10-15T13:43:32.175Z,21.9
2017-10-15T13:44:40.260Z,21.9
2017-10-15T13:45:48.346Z,21.9
2017-10-15T13:46:56.434Z,21.9
2017-10-15T13:48:04.527Z,21.9
2017-10-15T13:49:12.612Z,21.9
2017-10-15T13:50:20.696Z,21.9
2017-10-15T13:51:28.786Z,21.9
2017-10-15T13:52:36.870Z,21.9
2017-10-15T13:53:44.958Z,21.9
2017-10-15T13:54:53.042Z,22.0
2017-10-15T13:56:01.130Z,21.9
2017-10-15T13:57:09.219Z,21.9
2017-10-15T13:58:17.312Z,21.9
2017-10-15T13:59:25.397Z,22.0
2017-10-15T14:00:33.483Z,21.9
2017-10-15T14:01:41.590Z,21.9
2017-10-15T14:02:49.673Z,21.9
2017-10-15T14:03:57.760Z,21.9
2017-10-15T14:05:05.850Z,22.0
2017-10-15T14:06:13.934Z,21.9
2017-10-15T14:07:22.021Z,22.0
2017-10-15T14:08:30.108Z,21.9
2017-10-15T14:09:38.195Z,21.9
2017-10-15T14:10:46.289Z,21.9
2017-10-15T14:11:54.385Z,21.9
2017-10-15T14:13:02.467Z,22.0
2017-10-15T14:14:10.553Z,22.0
2017-10-15T14:15:18.640Z,22.0
2017-10-15T14:16:26.727Z,22.0
2017-10-15T14:17:34.816Z,22.0
2017-10-15T14:18:42.905Z,21.9
2017-10-15T14:19:50.986Z,22.0
2017-10-15T14:20:59.082Z,22.1
2017-10-15T14:22:07.163Z,22.0
2017-10-15T14:23:15.259Z,22.1
2017-10-15T14:24:23.345Z,22.0
2017-10-15T14:25:31.435Z,22.1
2017-10-15T14:26:39.519Z,22.1
2017-10-15T14:27:47.660Z,22.1
2017-10-15T14:28:55.706Z,22.1
2017-10-15T14:30:03.790Z,22.1
2017-10-15T14:31:11.877Z,22.1
2017-10-15T14:32:19.963Z,22.1
2017-10-15T14:33:28.047Z,22.1
2017-10-15T14:34:36.137Z,22.1
2017-10-15T14:35:44.225Z,22.1
2017-10-15T14:36:52.315Z,22.1
2017-10-15T14:38:00.409Z,22.1
2017-10-15T14:39:08.501Z,22.1
2017-10-15T14:40:16.584Z,22.1
2017-10-15T14:41:24.668Z,22.1
2017-10-15T14:42:32.756Z,22.1
2017-10-15T14:43:40.842Z,22.0
2017-10-15T14:44:48.932Z,22.2
2017-10-15T14:45:57.024Z,22.2
2017-10-15T14:47:05.114Z,22.2
2017-10-15T14:48:13.204Z,22.1
2017-10-15T14:49:21.282Z,22.1
2017-10-15T14:50:29.373Z,22.1
2017-10-15T14:51:37.461Z,22.1
2017-10-15T14:52:45.544Z,22.1
2017-10-15T14:53:53.632Z,22.1
2017-10-15T14:55:01.719Z,22.2
2017-10-15T14:56:09.834Z,22.2
2017-10-15T14:57:17.894Z,22.2
2017-10-15T14:58:26.065Z,22.2
2017-10-15T14:59:34.073Z,22.2
2017-10-15T15:00:42.153Z,22.1
2017-10-15T15:01:50.243Z,22.2
2017-10-15T15:02:58.330Z,22.2
2017-10-15T15:04:06.427Z,22.2
2017-10-15T15:05:14.521Z,22.2
2017-10-15T15:06:22.599Z,22.1